createdAt,value
2018-07-28T00:00:01.279Z,48.11
2018-07-28T00:05:01.562Z,48.23
2018-07-28T00:10:01.974Z,48.32
2018-07-28T00:15:01.260Z,48.39
2018-07-28T00:20:01.525Z,48.6
2018-07-28T00:25:01.812Z,48.78
2018-07-28T00:30:02.147Z,48.96
2018-07-28T00:35:01.401Z,49.12
2018-07-28T00:40:01.717Z,49.33
2018-07-28T00:45:02.054Z,49.67
2018-07-28T00:50:01.432Z,49.84
2018-07-28T00:55:01.703Z,50.14
2018-07-28T01:00:02.057Z,50.39
2018-07-28T01:05:01.470Z,50.77
2018-07-28T01:10:01.888Z,51.09
2018-07-28T01:15:01.223Z,51.38
2018-07-28T01:20:01.664Z,51.45
2018-07-28T01:25:02.125Z,51.66
2018-07-28T01:30:01.441Z,51.83
2018-07-28T01:35:01.918Z,52.08
2018-07-28T01:40:01.327Z,52.25
2018-07-28T01:45:01.689Z,52.48
2018-07-28T01:50:02.171Z,52.72
2018-07-28T01:55:01.539Z,52.91
2018-07-28T02:00:01.855Z,53.19
2018-07-28T02:05:02.363Z,53.42
2018-07-28T02:10:01.749Z,53.46
2018-07-28T02:15:02.119Z,54.4
2018-07-28T02:20:01.432Z,55.47
2018-07-28T02:25:01.686Z,56.53
2018-07-28T02:30:02.148Z,56.18
2018-07-28T02:35:01.532Z,57.47
2018-07-28T02:40:01.295Z,58.44
2018-07-28T02:45:01.791Z,58.16
2018-07-28T02:50:02.234Z,58.05
2018-07-28T02:55:01.551Z,57.58
2018-07-28T03:00:01.814Z,56.89
2018-07-28T03:05:02.232Z,56.87
2018-07-28T03:10:01.573Z,58.88
2018-07-28T03:15:01.852Z,58.76
2018-07-28T03:20:02.355Z,59.38
2018-07-28T03:25:01.792Z,58.01
2018-07-28T03:30:02.094Z,60.13
2018-07-28T03:35:01.347Z,60.58
2018-07-28T03:40:01.639Z,61.93
2018-07-28T03:45:01.930Z,62.65
2018-07-28T03:50:01.195Z,63.77
2018-07-28T03:55:01.433Z,64.24
2018-07-28T04:00:01.741Z,64.81
2018-07-28T04:05:02.033Z,66.33
2018-07-28T04:10:01.288Z,66.8
2018-07-28T04:15:01.544Z,68.09
2018-07-28T04:20:02.060Z,68.47
2018-07-28T04:25:01.465Z,69.49
2018-07-28T04:30:01.771Z,70.99
2018-07-28T04:35:02.134Z,70.66
2018-07-28T04:40:01.766Z,70.07
2018-07-28T04:45:02.008Z,69.73
2018-07-28T04:50:01.301Z,68.63
2018-07-28T04:55:01.613Z,67.48
2018-07-28T05:00:01.920Z,68.45
2018-07-28T05:05:01.202Z,69.24
2018-07-28T05:10:01.449Z,69.86
2018-07-28T05:15:01.758Z,72.83
2018-07-28T05:20:02.243Z,72.13
2018-07-28T05:25:01.606Z,71.87
2018-07-28T05:30:01.899Z,69.42
2018-07-28T05:35:01.210Z,69.84
2018-07-28T05:40:01.499Z,72.06
2018-07-28T05:45:01.739Z,69.86
2018-07-28T05:50:02.253Z,71.3
2018-07-28T05:55:01.682Z,74.19
2018-07-28T06:00:01.991Z,70.86
2018-07-28T06:05:01.248Z,73.04
2018-07-28T06:10:01.507Z,75.26
2018-07-28T06:15:01.803Z,74.22
2018-07-28T06:20:02.223Z,75.33
2018-07-28T06:25:01.588Z,74.94
2018-07-28T06:30:01.845Z,77.1
2018-07-28T06:35:02.317Z,76.09
2018-07-28T06:40:01.664Z,76.79
2018-07-28T06:45:01.930Z,76.32
2018-07-28T06:50:01.197Z,77.17
2018-07-28T06:55:01.472Z,75.71
2018-07-28T07:00:01.756Z,74.28
2018-07-28T07:05:02.251Z,79.83
2018-07-28T07:10:01.606Z,76.94
2018-07-28T07:15:01.879Z,79.41
2018-07-28T07:20:01.166Z,76.8
2018-07-28T07:25:01.497Z,77.11
2018-07-28T07:30:01.767Z,73.76
2018-07-28T07:35:02.179Z,76.67
2018-07-28T07:40:01.532Z,77.62
2018-07-28T07:45:01.803Z,75.14
2018-07-28T07:50:02.217Z,74.45
2018-07-28T07:55:01.538Z,76.3
2018-07-28T08:00:01.784Z,76.95
2018-07-28T08:05:02.178Z,73.62
2018-07-28T08:10:01.542Z,77.53
2018-07-28T08:15:01.816Z,74.49
2018-07-28T08:20:02.189Z,72.17
2018-07-28T08:25:01.571Z,72.21
2018-07-28T08:30:01.862Z,72.29
2018-07-28T08:35:02.354Z,70.63
2018-07-28T08:40:01.836Z,72.66
2018-07-28T08:45:01.431Z,72.01
2018-07-28T08:50:01.846Z,70.13
2018-07-28T08:55:02.185Z,71.14
2018-07-28T09:00:01.439Z,69.65
2018-07-28T09:05:01.878Z,66.13
2018-07-28T09:10:01.231Z,63.27
2018-07-28T09:15:01.479Z,62.61
2018-07-28T09:20:01.830Z,61.55
2018-07-28T09:25:02.203Z,60.17
2018-07-28T09:30:01.436Z,61
2018-07-28T09:35:01.934Z,62.65
2018-07-28T09:40:01.232Z,62.78
2018-07-28T09:45:01.552Z,61
2018-07-28T09:50:01.959Z,60.83
2018-07-28T09:55:01.280Z,62.53
2018-07-28T10:00:01.529Z,60.17
2018-07-28T10:05:01.988Z,59.72
2018-07-28T10:10:01.341Z,60.63
2018-07-28T10:15:01.646Z,63.87
2018-07-28T10:20:02.001Z,63.36
2018-07-28T10:25:01.376Z,58.5
2018-07-28T10:30:01.709Z,57.81
2018-07-28T10:35:02.074Z,56.06
2018-07-28T10:40:01.413Z,53.44
2018-07-28T10:45:01.691Z,53.07
2018-07-28T10:50:02.092Z,50.48
2018-07-28T10:55:01.418Z,52.21
2018-07-28T11:00:01.936Z,52.41
2018-07-28T11:05:01.360Z,55.23
2018-07-28T11:10:01.635Z,54.79
2018-07-28T11:15:01.924Z,54.83
2018-07-28T11:20:01.232Z,57.24
2018-07-28T11:25:01.541Z,62.23
2018-07-28T11:30:01.822Z,68.72
2018-07-28T11:35:02.206Z,73.72
2018-07-28T11:40:01.552Z,69.98
2018-07-28T11:45:01.851Z,67.76
2018-07-28T11:50:02.226Z,70.85
2018-07-28T11:55:01.593Z,70.82
2018-07-28T12:00:01.845Z,69.67
2018-07-28T12:05:01.178Z,71.05
2018-07-28T12:10:01.441Z,66.59
2018-07-28T12:15:01.769Z,66.32
2018-07-28T12:20:02.153Z,69.03
2018-07-28T12:25:01.524Z,59.76
2018-07-28T12:30:01.865Z,60.88
2018-07-28T12:35:02.526Z,63
2018-07-28T12:40:02.135Z,60.39
2018-07-28T12:45:01.401Z,69.7
2018-07-28T12:50:01.713Z,82.24
2018-07-28T12:55:02.053Z,83.86
2018-07-28T13:00:01.326Z,89.77
2018-07-28T13:05:01.684Z,89.99
2018-07-28T13:10:02.164Z,90.45
2018-07-28T13:15:01.443Z,91.36
2018-07-28T13:20:02.080Z,90.49
2018-07-28T13:25:01.460Z,90.72
2018-07-28T13:30:01.772Z,91.43
2018-07-28T13:35:02.166Z,93.01
2018-07-28T13:40:01.499Z,92.61
2018-07-28T13:45:01.768Z,92.56
2018-07-28T13:50:02.179Z,91.39
2018-07-28T13:55:01.502Z,92.42
2018-07-28T14:00:01.796Z,91.72
2018-07-28T14:05:02.282Z,91.42
2018-07-28T14:10:01.658Z,91.58
2018-07-28T14:15:02.129Z,87.78
2018-07-28T14:20:01.771Z,86.68
2018-07-28T14:25:02.300Z,85.03
2018-07-28T14:30:01.729Z,87.36
2018-07-28T14:35:02.038Z,86.95
2018-07-28T14:40:01.291Z,83.53
2018-07-28T14:45:01.639Z,85.04
2018-07-28T14:50:02.057Z,85.98
2018-07-28T14:55:01.388Z,87.94
2018-07-28T15:00:01.640Z,87
2018-07-28T15:05:02.109Z,86.28
2018-07-28T15:10:01.483Z,78.71
2018-07-28T15:15:01.758Z,86.3
2018-07-28T15:20:02.175Z,89.69
2018-07-28T15:25:01.505Z,89.49
2018-07-28T15:30:01.742Z,90.42
2018-07-28T15:35:02.228Z,90.08
2018-07-28T15:40:01.643Z,90.29
2018-07-28T15:45:01.913Z,94.79
2018-07-28T15:50:02.337Z,92.23
2018-07-28T15:55:01.683Z,88.52
2018-07-28T16:00:02.045Z,88.27
2018-07-28T16:05:01.319Z,87.16
2018-07-28T16:10:01.639Z,83.53
2018-07-28T16:15:01.913Z,80.32
2018-07-28T16:20:01.412Z,85.2
2018-07-28T16:25:01.847Z,80.44
2018-07-28T16:30:02.138Z,82.7
2018-07-28T16:35:01.415Z,83.37
2018-07-28T16:40:01.886Z,81.39
2018-07-28T16:45:02.144Z,81.42
2018-07-28T16:50:01.392Z,82.41
2018-07-28T16:55:01.698Z,72.99
2018-07-28T17:00:02.019Z,70.82
2018-07-28T17:05:01.283Z,68.41
2018-07-28T17:10:01.561Z,68.09
2018-07-28T17:15:01.801Z,68.92
2018-07-28T17:20:02.240Z,62.58
2018-07-28T17:25:01.658Z,64.56
2018-07-28T17:30:01.968Z,67.24
2018-07-28T17:35:01.262Z,70.47
2018-07-28T17:40:01.584Z,67.87
2018-07-28T17:45:01.844Z,69.85
2018-07-28T17:50:02.172Z,70.19
2018-07-28T17:55:01.578Z,68.56
2018-07-28T18:00:02.194Z,70.66
2018-07-28T18:05:01.715Z,70.87
2018-07-28T18:10:02.054Z,71.41
2018-07-28T18:15:01.307Z,70.89
2018-07-28T18:20:01.682Z,72.38
2018-07-28T18:25:02.035Z,71.85
2018-07-28T18:30:01.342Z,71.53
2018-07-28T18:35:01.707Z,73.52
2018-07-28T18:40:02.066Z,74
2018-07-28T18:45:01.333Z,74.48
2018-07-28T18:50:01.715Z,72.32
2018-07-28T18:55:02.051Z,76.6
2018-07-28T19:00:01.368Z,76.08
2018-07-28T19:05:01.815Z,73.77
2018-07-28T19:10:02.152Z,74.02
2018-07-28T19:15:01.417Z,73.97
2018-07-28T19:20:01.920Z,73.01
2018-07-28T19:25:01.223Z,73.64
2018-07-28T19:30:01.467Z,76.19
2018-07-28T19:35:01.936Z,74.64
2018-07-28T19:40:01.264Z,75.04
2018-07-28T19:45:01.525Z,75.66
2018-07-28T19:50:01.939Z,77.87
2018-07-28T19:55:01.284Z,78.75
2018-07-28T20:00:01.531Z,77.44
2018-07-28T20:05:02.007Z,78.41
2018-07-28T20:10:01.378Z,76.6
2018-07-28T20:15:02.049Z,76.87
2018-07-28T20:20:01.371Z,79.57
2018-07-28T20:25:01.731Z,78.14
2018-07-28T20:30:02.091Z,77.7
2018-07-28T20:35:01.378Z,80.1
2018-07-28T20:40:01.658Z,79.87
2018-07-28T20:45:01.943Z,77.5
2018-07-28T20:50:01.252Z,78.21
2018-07-28T20:55:01.539Z,78.03
2018-07-28T21:00:01.862Z,79.37
2018-07-28T21:05:01.196Z,77.36
2018-07-28T21:10:01.629Z,80.89
2018-07-28T21:15:02.003Z,79.97
2018-07-28T21:20:01.296Z,80.32
2018-07-28T21:25:01.594Z,81.73
2018-07-28T21:30:01.893Z,82.67
2018-07-28T21:35:01.190Z,80.15
2018-07-28T21:40:01.476Z,78.26
2018-07-28T21:45:01.750Z,74.62
2018-07-28T21:50:02.110Z,74.1
2018-07-28T21:55:01.434Z,74.89
2018-07-28T22:00:01.735Z,72.78
2018-07-28T22:05:02.268Z,73.8
2018-07-28T22:10:01.696Z,74.38
2018-07-28T22:15:01.968Z,72.15
2018-07-28T22:20:01.258Z,71.71
2018-07-28T22:25:01.598Z,72.38
2018-07-28T22:30:01.834Z,72.25
2018-07-28T22:35:02.214Z,72.03
2018-07-28T22:40:01.523Z,71.66
2018-07-28T22:45:01.834Z,73.24
2018-07-28T22:50:02.078Z,72.24
2018-07-28T22:55:01.334Z,71.46
2018-07-28T23:00:01.569Z,72.48
2018-07-28T23:05:02.004Z,71.98
2018-07-28T23:10:01.332Z,72.82
2018-07-28T23:15:01.653Z,72.62
2018-07-28T23:20:02.009Z,73.28
2018-07-28T23:25:01.357Z,74.31
2018-07-28T23:30:01.649Z,73.78
2018-07-28T23:35:02.094Z,75.35
2018-07-28T23:40:01.440Z,74.26
2018-07-28T23:45:01.696Z,74.71
2018-07-28T23:50:02.028Z,75.36
2018-07-28T23:55:01.284Z,76.16
